sensor_id;sensor_type;location;lat;lon;timestamp;pressure;altitude;pressure_sealevel;temperature;humidity
55022;BME280;68328;35.990;-86.756;2023-03-14T00:01:15;99617.57;;;7.95;30.28
55022;BME280;68328;35.990;-86.756;2023-03-14T00:03:37;99616.84;;;8.10;28.88
55022;BME280;68328;35.990;-86.756;2023-03-14T00:06:04;99616.98;;;7.09;28.33
55022;BME280;68328;35.990;-86.756;2023-03-14T00:08:28;99618.01;;;7.61;29.23
55022;BME280;68328;35.990;-86.756;2023-03-14T00:10:54;99619.30;;;7.35;28.77
55022;BME280;68328;35.990;-86.756;2023-03-14T00:13:20;99624.80;;;7.40;29.63
55022;BME280;68328;35.990;-86.756;2023-03-14T00:15:45;99624.33;;;7.53;29.03
55022;BME280;68328;35.990;-86.756;2023-03-14T00:18:10;99627.77;;;7.64;28.80
55022;BME280;68328;35.990;-86.756;2023-03-14T00:20:35;99626.69;;;7.34;28.58
55022;BME280;68328;35.990;-86.756;2023-03-14T00:23:01;99629.69;;;7.56;31.26
55022;BME280;68328;35.990;-86.756;2023-03-14T00:25:27;99632.54;;;7.14;29.78
55022;BME280;68328;35.990;-86.756;2023-03-14T00:27:52;99634.09;;;7.56;28.60
55022;BME280;68328;35.990;-86.756;2023-03-14T00:30:17;99638.58;;;7.50;29.04
55022;BME280;68328;35.990;-86.756;2023-03-14T00:32:43;99645.08;;;7.52;31.64
55022;BME280;68328;35.990;-86.756;2023-03-14T00:35:08;99648.01;;;7.35;29.28
55022;BME280;68328;35.990;-86.756;2023-03-14T00:37:33;99649.53;;;7.37;29.59
55022;BME280;68328;35.990;-86.756;2023-03-14T00:39:59;99653.81;;;7.78;30.95
55022;BME280;68328;35.990;-86.756;2023-03-14T00:42:24;99657.68;;;7.95;27.89
55022;BME280;68328;35.990;-86.756;2023-03-14T00:44:50;99655.11;;;7.71;29.28
55022;BME280;68328;35.990;-86.756;2023-03-14T00:47:15;99662.67;;;7.81;28.29
55022;BME280;68328;35.990;-86.756;2023-03-14T00:49:40;99662.80;;;7.76;28.45
55022;BME280;68328;35.990;-86.756;2023-03-14T00:52:06;99662.10;;;8.10;28.13
55022;BME280;68328;35.990;-86.756;2023-03-14T00:54:31;99664.13;;;8.11;28.89
55022;BME280;68328;35.990;-86.756;2023-03-14T00:56:57;99660.98;;;7.50;29.26
55022;BME280;68328;35.990;-86.756;2023-03-14T00:59:22;99658.34;;;7.49;29.63
55022;BME280;68328;35.990;-86.756;2023-03-14T01:01:48;99661.83;;;7.65;30.36
55022;BME280;68328;35.990;-86.756;2023-03-14T01:04:13;99667.65;;;7.96;30.72
55022;BME280;68328;35.990;-86.756;2023-03-14T01:06:40;99665.84;;;7.99;31.63
55022;BME280;68328;35.990;-86.756;2023-03-14T01:09:04;99665.35;;;8.05;28.03
55022;BME280;68328;35.990;-86.756;2023-03-14T01:11:31;99668.14;;;8.03;28.47
55022;BME280;68328;35.990;-86.756;2023-03-14T01:13:55;99671.04;;;8.24;28.40
55022;BME280;68328;35.990;-86.756;2023-03-14T01:16:22;99668.00;;;8.05;28.66
55022;BME280;68328;35.990;-86.756;2023-03-14T01:18:47;99673.75;;;8.06;29.82
55022;BME280;68328;35.990;-86.756;2023-03-14T01:21:13;99669.97;;;7.94;28.50
55022;BME280;68328;35.990;-86.756;2023-03-14T01:23:36;99670.91;;;8.03;28.98
55022;BME280;68328;35.990;-86.756;2023-03-14T01:26:02;99671.76;;;7.95;29.57
55022;BME280;68328;35.990;-86.756;2023-03-14T01:28:29;99672.72;;;7.63;29.01
55022;BME280;68328;35.990;-86.756;2023-03-14T01:30:53;99678.58;;;8.02;30.26
55022;BME280;68328;35.990;-86.756;2023-03-14T01:33:18;99682.13;;;7.83;29.82
55022;BME280;68328;35.990;-86.756;2023-03-14T01:35:44;99681.41;;;7.75;30.20
55022;BME280;68328;35.990;-86.756;2023-03-14T01:38:10;99684.65;;;7.96;30.04
55022;BME280;68328;35.990;-86.756;2023-03-14T01:40:41;99686.66;;;8.04;29.36
55022;BME280;68328;35.990;-86.756;2023-03-14T01:43:06;99688.06;;;8.04;29.73
55022;BME280;68328;35.990;-86.756;2023-03-14T01:47:52;99691.98;;;8.03;30.64
55022;BME280;68328;35.990;-86.756;2023-03-14T01:50:17;99697.59;;;7.69;29.74
55022;BME280;68328;35.990;-86.756;2023-03-14T01:52:44;99693.93;;;7.83;30.39
55022;BME280;68328;35.990;-86.756;2023-03-14T01:55:11;99694.58;;;8.04;31.08
55022;BME280;68328;35.990;-86.756;2023-03-14T01:57:37;99694.74;;;7.84;31.46
55022;BME280;68328;35.990;-86.756;2023-03-14T02:00:03;99695.28;;;7.85;29.86
55022;BME280;68328;35.990;-86.756;2023-03-14T02:02:25;99699.92;;;7.59;30.46
55022;BME280;68328;35.990;-86.756;2023-03-14T02:04:49;99704.52;;;6.87;29.97
55022;BME280;68328;35.990;-86.756;2023-03-14T02:07:17;99707.38;;;7.14;31.03
55022;BME280;68328;35.990;-86.756;2023-03-14T02:09:40;99713.19;;;6.75;30.58
55022;BME280;68328;35.990;-86.756;2023-03-14T02:12:06;99720.88;;;6.76;30.81
55022;BME280;68328;35.990;-86.756;2023-03-14T02:14:34;99722.00;;;6.25;31.06
55022;BME280;68328;35.990;-86.756;2023-03-14T02:16:56;99721.87;;;6.17;31.73
55022;BME280;68328;35.990;-86.756;2023-03-14T02:19:28;99722.47;;;6.55;31.02
55022;BME280;68328;35.990;-86.756;2023-03-14T02:21:53;99730.12;;;6.74;31.13
55022;BME280;68328;35.990;-86.756;2023-03-14T02:24:17;99736.88;;;6.68;30.78
55022;BME280;68328;35.990;-86.756;2023-03-14T02:26:40;99740.02;;;6.62;30.77
55022;BME280;68328;35.990;-86.756;2023-03-14T02:29:03;99747.04;;;6.21;31.90
55022;BME280;68328;35.990;-86.756;2023-03-14T02:31:29;99750.38;;;6.14;31.87
55022;BME280;68328;35.990;-86.756;2023-03-14T02:33:55;99751.85;;;6.37;31.06
55022;BME280;68328;35.990;-86.756;2023-03-14T02:36:21;99752.45;;;6.39;31.28
55022;BME280;68328;35.990;-86.756;2023-03-14T02:38:47;99756.88;;;6.17;30.98
55022;BME280;68328;35.990;-86.756;2023-03-14T02:41:10;99761.16;;;6.08;30.57
55022;BME280;68328;35.990;-86.756;2023-03-14T02:43:35;99758.47;;;6.12;31.25
55022;BME280;68328;35.990;-86.756;2023-03-14T02:46:01;99758.77;;;6.06;30.53
55022;BME280;68328;35.990;-86.756;2023-03-14T02:48:28;99760.15;;;6.40;30.05
55022;BME280;68328;35.990;-86.756;2023-03-14T02:50:54;99764.64;;;6.30;29.98
55022;BME280;68328;35.990;-86.756;2023-03-14T02:53:20;99764.68;;;6.61;30.57
55022;BME280;68328;35.990;-86.756;2023-03-14T02:55:46;99768.43;;;6.65;29.78
55022;BME280;68328;35.990;-86.756;2023-03-14T02:58:08;99770.33;;;6.68;30.75
55022;BME280;68328;35.990;-86.756;2023-03-14T03:00:33;99771.81;;;6.21;30.71
55022;BME280;68328;35.990;-86.756;2023-03-14T03:02:59;99769.88;;;5.83;31.72
55022;BME280;68328;35.990;-86.756;2023-03-14T03:05:25;99765.34;;;5.68;31.29
55022;BME280;68328;35.990;-86.756;2023-03-14T03:07:49;99764.99;;;5.83;31.69
55022;BME280;68328;35.990;-86.756;2023-03-14T03:10:15;99763.72;;;5.98;32.07
55022;BME280;68328;35.990;-86.756;2023-03-14T03:12:40;99756.46;;;6.07;31.47
55022;BME280;68328;35.990;-86.756;2023-03-14T03:15:07;99760.94;;;5.84;31.53
55022;BME280;68328;35.990;-86.756;2023-03-14T03:17:31;99758.24;;;5.76;30.92
55022;BME280;68328;35.990;-86.756;2023-03-14T03:19:57;99760.96;;;5.87;30.39
55022;BME280;68328;35.990;-86.756;2023-03-14T03:22:23;99757.50;;;5.84;30.87
55022;BME280;68328;35.990;-86.756;2023-03-14T03:24:49;99755.10;;;5.50;31.88
55022;BME280;68328;35.990;-86.756;2023-03-14T03:27:13;99758.33;;;5.23;31.22
55022;BME280;68328;35.990;-86.756;2023-03-14T03:29:39;99763.41;;;5.26;33.62
55022;BME280;68328;35.990;-86.756;2023-03-14T03:32:04;99770.68;;;5.16;32.24
55022;BME280;68328;35.990;-86.756;2023-03-14T03:34:30;99775.74;;;4.71;33.60
55022;BME280;68328;35.990;-86.756;2023-03-14T03:36:57;99774.70;;;5.42;32.00
55022;BME280;68328;35.990;-86.756;2023-03-14T03:39:20;99770.43;;;5.25;32.94
55022;BME280;68328;35.990;-86.756;2023-03-14T03:41:46;99770.50;;;4.91;32.05
55022;BME280;68328;35.990;-86.756;2023-03-14T03:44:11;99778.29;;;4.80;32.36
55022;BME280;68328;35.990;-86.756;2023-03-14T03:46:37;99781.00;;;5.43;33.95
55022;BME280;68328;35.990;-86.756;2023-03-14T03:49:03;99778.37;;;5.76;31.99
55022;BME280;68328;35.990;-86.756;2023-03-14T03:51:28;99781.95;;;5.78;33.20
55022;BME280;68328;35.990;-86.756;2023-03-14T03:53:55;99783.57;;;5.06;31.44
55022;BME280;68328;35.990;-86.756;2023-03-14T03:56:19;99782.65;;;5.61;33.59
55022;BME280;68328;35.990;-86.756;2023-03-14T03:58:44;99783.94;;;5.75;32.96
55022;BME280;68328;35.990;-86.756;2023-03-14T04:01:11;99786.80;;;5.44;32.35
55022;BME280;68328;35.990;-86.756;2023-03-14T04:03:35;99785.75;;;5.92;32.01
55022;BME280;68328;35.990;-86.756;2023-03-14T04:06:01;99790.08;;;6.14;31.42
55022;BME280;68328;35.990;-86.756;2023-03-14T04:08:26;99793.41;;;6.18;31.43
55022;BME280;68328;35.990;-86.756;2023-03-14T04:10:55;99793.92;;;5.48;31.60
55022;BME280;68328;35.990;-86.756;2023-03-14T04:13:17;99796.46;;;5.33;31.67
55022;BME280;68328;35.990;-86.756;2023-03-14T04:15:43;99793.88;;;5.51;31.91
55022;BME280;68328;35.990;-86.756;2023-03-14T04:18:08;99792.65;;;5.84;31.84
55022;BME280;68328;35.990;-86.756;2023-03-14T04:20:35;99793.99;;;5.60;31.72
55022;BME280;68328;35.990;-86.756;2023-03-14T04:23:00;99795.28;;;5.49;31.75
55022;BME280;68328;35.990;-86.756;2023-03-14T04:25:24;99802.36;;;5.64;31.48
55022;BME280;68328;35.990;-86.756;2023-03-14T04:27:51;99805.15;;;5.59;32.45
55022;BME280;68328;35.990;-86.756;2023-03-14T04:30:15;99810.50;;;5.83;30.88
55022;BME280;68328;35.990;-86.756;2023-03-14T04:32:41;99810.24;;;5.50;31.44
55022;BME280;68328;35.990;-86.756;2023-03-14T04:35:07;99810.09;;;5.59;31.72
55022;BME280;68328;35.990;-86.756;2023-03-14T04:37:32;99809.72;;;5.46;31.75
55022;BME280;68328;35.990;-86.756;2023-03-14T04:39:57;99811.47;;;5.67;32.04
55022;BME280;68328;35.990;-86.756;2023-03-14T04:42:23;99812.64;;;5.92;30.77
55022;BME280;68328;35.990;-86.756;2023-03-14T04:44:48;99818.44;;;5.23;31.94
55022;BME280;68328;35.990;-86.756;2023-03-14T04:47:14;99820.48;;;5.35;31.54
55022;BME280;68328;35.990;-86.756;2023-03-14T04:49:40;99819.41;;;5.51;32.69
55022;BME280;68328;35.990;-86.756;2023-03-14T04:52:05;99824.33;;;5.91;31.98
55022;BME280;68328;35.990;-86.756;2023-03-14T04:54:30;99823.07;;;5.96;31.34
55022;BME280;68328;35.990;-86.756;2023-03-14T04:56:56;99822.14;;;6.07;31.46
55022;BME280;68328;35.990;-86.756;2023-03-14T04:59:21;99820.45;;;5.99;31.62
55022;BME280;68328;35.990;-86.756;2023-03-14T05:01:47;99821.07;;;6.08;31.61
55022;BME280;68328;35.990;-86.756;2023-03-14T05:04:12;99824.54;;;6.20;31.44
55022;BME280;68328;35.990;-86.756;2023-03-14T05:06:37;99821.45;;;5.57;31.98
55022;BME280;68328;35.990;-86.756;2023-03-14T05:09:03;99821.79;;;4.80;32.00
55022;BME280;68328;35.990;-86.756;2023-03-14T05:11:28;99826.62;;;5.56;32.87
55022;BME280;68328;35.990;-86.756;2023-03-14T05:13:54;99828.77;;;5.28;32.89
55022;BME280;68328;35.990;-86.756;2023-03-14T05:16:19;99828.30;;;5.63;32.13
55022;BME280;68328;35.990;-86.756;2023-03-14T05:18:45;99824.79;;;4.93;33.16
55022;BME280;68328;35.990;-86.756;2023-03-14T05:21:10;99828.40;;;4.52;33.69
55022;BME280;68328;35.990;-86.756;2023-03-14T05:23:37;99834.40;;;4.41;32.83
55022;BME280;68328;35.990;-86.756;2023-03-14T05:26:01;99833.51;;;3.99;32.75
55022;BME280;68328;35.990;-86.756;2023-03-14T05:28:27;99834.65;;;4.89;32.47
55022;BME280;68328;35.990;-86.756;2023-03-14T05:30:52;99838.14;;;5.10;32.59
55022;BME280;68328;35.990;-86.756;2023-03-14T05:33:18;99843.05;;;4.77;32.68
55022;BME280;68328;35.990;-86.756;2023-03-14T05:35:44;99846.39;;;4.78;31.90
55022;BME280;68328;35.990;-86.756;2023-03-14T05:38:09;99843.08;;;4.66;32.47
55022;BME280;68328;35.990;-86.756;2023-03-14T05:40:35;99844.09;;;5.02;31.40
55022;BME280;68328;35.990;-86.756;2023-03-14T05:42:59;99840.21;;;4.85;31.50
55022;BME280;68328;35.990;-86.756;2023-03-14T05:45:25;99841.83;;;5.09;32.02
55022;BME280;68328;35.990;-86.756;2023-03-14T05:47:50;99839.63;;;5.05;32.56
55022;BME280;68328;35.990;-86.756;2023-03-14T05:50:17;99839.03;;;4.88;32.22
55022;BME280;68328;35.990;-86.756;2023-03-14T05:52:42;99844.61;;;4.62;32.71
55022;BME280;68328;35.990;-86.756;2023-03-14T05:55:08;99848.04;;;5.16;31.89
55022;BME280;68328;35.990;-86.756;2023-03-14T05:57:33;99849.50;;;4.99;31.40
55022;BME280;68328;35.990;-86.756;2023-03-14T05:59:58;99853.84;;;5.07;32.10
55022;BME280;68328;35.990;-86.756;2023-03-14T06:02:23;99850.64;;;5.00;31.97
55022;BME280;68328;35.990;-86.756;2023-03-14T06:04:49;99851.19;;;5.58;31.81
55022;BME280;68328;35.990;-86.756;2023-03-14T06:07:14;99858.01;;;5.50;31.60
55022;BME280;68328;35.990;-86.756;2023-03-14T06:09:41;99863.29;;;5.49;31.46
55022;BME280;68328;35.990;-86.756;2023-03-14T06:12:06;99866.14;;;5.38;30.85
55022;BME280;68328;35.990;-86.756;2023-03-14T06:14:32;99866.40;;;5.47;30.82
55022;BME280;68328;35.990;-86.756;2023-03-14T06:16:56;99871.91;;;5.63;32.64
55022;BME280;68328;35.990;-86.756;2023-03-14T06:19:21;99868.59;;;5.08;31.58
55022;BME280;68328;35.990;-86.756;2023-03-14T06:21:47;99870.39;;;5.72;32.04
55022;BME280;68328;35.990;-86.756;2023-03-14T06:24:12;99871.48;;;5.98;31.30
55022;BME280;68328;35.990;-86.756;2023-03-14T06:26:38;99864.38;;;6.00;30.53
55022;BME280;68328;35.990;-86.756;2023-03-14T06:29:04;99863.33;;;5.82;31.45
55022;BME280;68328;35.990;-86.756;2023-03-14T06:31:29;99862.78;;;6.00;32.36
55022;BME280;68328;35.990;-86.756;2023-03-14T06:33:54;99863.94;;;6.02;30.12
55022;BME280;68328;35.990;-86.756;2023-03-14T06:36:20;99863.73;;;5.91;30.56
55022;BME280;68328;35.990;-86.756;2023-03-14T06:38:45;99864.92;;;5.40;30.71
55022;BME280;68328;35.990;-86.756;2023-03-14T06:41:10;99867.41;;;5.56;32.19
55022;BME280;68328;35.990;-86.756;2023-03-14T06:43:36;99863.16;;;5.53;32.09
55022;BME280;68328;35.990;-86.756;2023-03-14T06:46:01;99862.45;;;5.40;31.77
55022;BME280;68328;35.990;-86.756;2023-03-14T06:48:27;99863.04;;;5.43;31.74
55022;BME280;68328;35.990;-86.756;2023-03-14T06:50:52;99862.09;;;5.22;31.66
55022;BME280;68328;35.990;-86.756;2023-03-14T06:53:18;99861.92;;;5.22;30.95
55022;BME280;68328;35.990;-86.756;2023-03-14T06:55:43;99863.59;;;5.28;33.33
55022;BME280;68328;35.990;-86.756;2023-03-14T06:58:09;99867.69;;;5.47;32.37
55022;BME280;68328;35.990;-86.756;2023-03-14T07:00:35;99863.86;;;4.95;32.11
55022;BME280;68328;35.990;-86.756;2023-03-14T07:03:00;99861.81;;;5.60;31.68
55022;BME280;68328;35.990;-86.756;2023-03-14T07:05:25;99859.88;;;5.05;31.94
55022;BME280;68328;35.990;-86.756;2023-03-14T07:07:51;99864.48;;;4.69;32.99
55022;BME280;68328;35.990;-86.756;2023-03-14T07:10:16;99859.75;;;5.30;32.83
55022;BME280;68328;35.990;-86.756;2023-03-14T07:12:42;99860.45;;;5.54;32.29
55022;BME280;68328;35.990;-86.756;2023-03-14T07:15:08;99859.64;;;5.41;31.59
55022;BME280;68328;35.990;-86.756;2023-03-14T07:17:32;99856.14;;;5.00;32.61
55022;BME280;68328;35.990;-86.756;2023-03-14T07:19:58;99856.70;;;5.26;33.03
55022;BME280;68328;35.990;-86.756;2023-03-14T07:22:23;99856.90;;;5.61;32.09
55022;BME280;68328;35.990;-86.756;2023-03-14T07:24:49;99857.25;;;5.79;30.86
55022;BME280;68328;35.990;-86.756;2023-03-14T07:27:15;99858.37;;;5.69;31.18
55022;BME280;68328;35.990;-86.756;2023-03-14T07:29:40;99851.93;;;5.98;31.31
55022;BME280;68328;35.990;-86.756;2023-03-14T07:32:05;99848.92;;;6.06;31.51
55022;BME280;68328;35.990;-86.756;2023-03-14T07:34:31;99839.23;;;5.92;31.41
55022;BME280;68328;35.990;-86.756;2023-03-14T07:36:57;99837.29;;;5.81;32.65
55022;BME280;68328;35.990;-86.756;2023-03-14T07:39:22;99838.82;;;5.44;31.95
55022;BME280;68328;35.990;-86.756;2023-03-14T07:41:47;99837.34;;;5.19;32.01
55022;BME280;68328;35.990;-86.756;2023-03-14T07:44:13;99836.00;;;5.52;33.49
55022;BME280;68328;35.990;-86.756;2023-03-14T07:46:38;99834.26;;;5.71;31.87
55022;BME280;68328;35.990;-86.756;2023-03-14T07:49:04;99833.39;;;5.47;32.76
55022;BME280;68328;35.990;-86.756;2023-03-14T07:51:29;99830.38;;;5.58;32.10
55022;BME280;68328;35.990;-86.756;2023-03-14T07:53:55;99827.34;;;5.71;31.36
55022;BME280;68328;35.990;-86.756;2023-03-14T07:56:20;99827.80;;;5.73;35.76
55022;BME280;68328;35.990;-86.756;2023-03-14T07:58:45;99825.27;;;5.74;32.26
55022;BME280;68328;35.990;-86.756;2023-03-14T08:01:11;99823.76;;;5.70;32.22
55022;BME280;68328;35.990;-86.756;2023-03-14T08:03:36;99826.28;;;5.68;33.10
55022;BME280;68328;35.990;-86.756;2023-03-14T08:06:02;99825.20;;;5.45;32.68
55022;BME280;68328;35.990;-86.756;2023-03-14T08:08:27;99826.76;;;5.49;30.89
55022;BME280;68328;35.990;-86.756;2023-03-14T08:10:52;99822.21;;;5.38;32.04
55022;BME280;68328;35.990;-86.756;2023-03-14T08:13:18;99825.97;;;5.67;32.78
55022;BME280;68328;35.990;-86.756;2023-03-14T08:15:47;99823.84;;;5.57;32.12
55022;BME280;68328;35.990;-86.756;2023-03-14T08:18:08;99820.34;;;5.90;33.92
55022;BME280;68328;35.990;-86.756;2023-03-14T08:20:36;99820.27;;;5.69;32.53
55022;BME280;68328;35.990;-86.756;2023-03-14T08:23:00;99820.59;;;5.61;33.22
55022;BME280;68328;35.990;-86.756;2023-03-14T08:25:25;99820.81;;;5.73;32.38
55022;BME280;68328;35.990;-86.756;2023-03-14T08:27:50;99820.57;;;5.78;31.80
55022;BME280;68328;35.990;-86.756;2023-03-14T08:30:17;99821.56;;;5.72;33.19
55022;BME280;68328;35.990;-86.756;2023-03-14T08:32:41;99823.69;;;5.70;33.27
55022;BME280;68328;35.990;-86.756;2023-03-14T08:35:08;99821.35;;;5.78;35.72
55022;BME280;68328;35.990;-86.756;2023-03-14T08:37:32;99820.51;;;5.84;32.58
55022;BME280;68328;35.990;-86.756;2023-03-14T08:39:58;99821.59;;;5.89;33.54
55022;BME280;68328;35.990;-86.756;2023-03-14T08:42:23;99820.50;;;6.12;32.33
55022;BME280;68328;35.990;-86.756;2023-03-14T08:44:49;99819.33;;;5.82;31.97
55022;BME280;68328;35.990;-86.756;2023-03-14T08:47:14;99817.46;;;5.78;31.92
55022;BME280;68328;35.990;-86.756;2023-03-14T08:49:40;99816.51;;;5.65;32.25
55022;BME280;68328;35.990;-86.756;2023-03-14T08:52:06;99820.72;;;5.78;32.62
55022;BME280;68328;35.990;-86.756;2023-03-14T08:54:31;99819.16;;;6.08;31.94
55022;BME280;68328;35.990;-86.756;2023-03-14T08:56:57;99822.29;;;5.88;34.23
55022;BME280;68328;35.990;-86.756;2023-03-14T08:59:22;99820.58;;;5.87;32.88
55022;BME280;68328;35.990;-86.756;2023-03-14T09:01:47;99824.07;;;6.17;33.43
55022;BME280;68328;35.990;-86.756;2023-03-14T09:04:13;99825.87;;;6.00;32.39
55022;BME280;68328;35.990;-86.756;2023-03-14T09:06:38;99823.48;;;5.63;31.99
55022;BME280;68328;35.990;-86.756;2023-03-14T09:09:04;99824.42;;;5.92;32.22
55022;BME280;68328;35.990;-86.756;2023-03-14T09:11:29;99826.30;;;6.01;33.52
55022;BME280;68328;35.990;-86.756;2023-03-14T09:13:55;99821.92;;;5.79;34.08
55022;BME280;68328;35.990;-86.756;2023-03-14T09:16:20;99824.43;;;5.81;31.62
55022;BME280;68328;35.990;-86.756;2023-03-14T09:18:46;99823.72;;;6.14;32.60
55022;BME280;68328;35.990;-86.756;2023-03-14T09:21:11;99825.25;;;6.17;32.55
55022;BME280;68328;35.990;-86.756;2023-03-14T09:23:36;99821.70;;;5.75;32.42
55022;BME280;68328;35.990;-86.756;2023-03-14T09:26:02;99822.78;;;6.15;32.21
55022;BME280;68328;35.990;-86.756;2023-03-14T09:28:28;99818.65;;;6.05;32.76
55022;BME280;68328;35.990;-86.756;2023-03-14T09:30:53;99818.72;;;6.04;32.51
55022;BME280;68328;35.990;-86.756;2023-03-14T09:33:18;99813.58;;;6.05;33.08
55022;BME280;68328;35.990;-86.756;2023-03-14T09:35:44;99816.55;;;6.02;33.18
55022;BME280;68328;35.990;-86.756;2023-03-14T09:38:09;99818.30;;;5.86;33.13
55022;BME280;68328;35.990;-86.756;2023-03-14T09:40:36;99818.81;;;5.64;32.13
55022;BME280;68328;35.990;-86.756;2023-03-14T09:43:00;99819.90;;;5.70;33.77
55022;BME280;68328;35.990;-86.756;2023-03-14T09:45:28;99813.78;;;5.85;34.16
55022;BME280;68328;35.990;-86.756;2023-03-14T09:47:52;99818.56;;;5.57;33.42
55022;BME280;68328;35.990;-86.756;2023-03-14T09:50:17;99820.02;;;5.89;33.26
55022;BME280;68328;35.990;-86.756;2023-03-14T09:52:44;99818.81;;;5.80;32.31
55022;BME280;68328;35.990;-86.756;2023-03-14T09:55:12;99820.24;;;6.04;34.61
55022;BME280;68328;35.990;-86.756;2023-03-14T09:57:35;99820.69;;;6.14;33.32
55022;BME280;68328;35.990;-86.756;2023-03-14T10:00:02;99820.48;;;6.41;34.95
55022;BME280;68328;35.990;-86.756;2023-03-14T10:02:25;99822.96;;;6.45;33.19
55022;BME280;68328;35.990;-86.756;2023-03-14T10:04:51;99825.29;;;6.34;33.85
55022;BME280;68328;35.990;-86.756;2023-03-14T10:07:17;99825.49;;;6.33;32.92
55022;BME280;68328;35.990;-86.756;2023-03-14T10:09:40;99824.47;;;5.92;32.75
55022;BME280;68328;35.990;-86.756;2023-03-14T10:12:08;99823.49;;;5.95;33.39
55022;BME280;68328;35.990;-86.756;2023-03-14T10:14:34;99823.44;;;6.24;34.60
55022;BME280;68328;35.990;-86.756;2023-03-14T10:17:05;99828.71;;;6.39;34.64
55022;BME280;68328;35.990;-86.756;2023-03-14T10:19:22;99828.62;;;6.19;33.90
55022;BME280;68328;35.990;-86.756;2023-03-14T10:21:52;99827.21;;;5.94;33.35
55022;BME280;68328;35.990;-86.756;2023-03-14T10:24:21;99829.77;;;6.54;32.71
55022;BME280;68328;35.990;-86.756;2023-03-14T10:26:39;99832.74;;;6.38;32.34
55022;BME280;68328;35.990;-86.756;2023-03-14T10:29:09;99833.32;;;6.59;33.13
55022;BME280;68328;35.990;-86.756;2023-03-14T10:33:59;99836.92;;;6.01;32.38
55022;BME280;68328;35.990;-86.756;2023-03-14T10:36:23;99842.57;;;6.16;32.45
55022;BME280;68328;35.990;-86.756;2023-03-14T10:38:45;99848.78;;;6.14;32.72
55022;BME280;68328;35.990;-86.756;2023-03-14T10:41:17;99852.82;;;6.31;33.15
55022;BME280;68328;35.990;-86.756;2023-03-14T10:43:37;99853.90;;;6.18;31.78
55022;BME280;68328;35.990;-86.756;2023-03-14T10:46:08;99856.19;;;5.70;33.30
55022;BME280;68328;35.990;-86.756;2023-03-14T10:48:33;99856.58;;;5.69;33.29
55022;BME280;68328;35.990;-86.756;2023-03-14T10:50:58;99857.80;;;5.84;32.57
55022;BME280;68328;35.990;-86.756;2023-03-14T10:53:19;99864.75;;;5.46;32.25
55022;BME280;68328;35.990;-86.756;2023-03-14T10:55:45;99866.98;;;5.63;32.94
55022;BME280;68328;35.990;-86.756;2023-03-14T10:58:19;99868.79;;;5.50;33.43
55022;BME280;68328;35.990;-86.756;2023-03-14T11:00:35;99875.69;;;5.32;33.33
55022;BME280;68328;35.990;-86.756;2023-03-14T11:03:08;99878.80;;;5.43;33.59
55022;BME280;68328;35.990;-86.756;2023-03-14T11:05:30;99883.12;;;5.44;33.56
55022;BME280;68328;35.990;-86.756;2023-03-14T11:07:53;99887.33;;;5.52;33.12
55022;BME280;68328;35.990;-86.756;2023-03-14T11:10:20;99890.27;;;5.34;32.90
55022;BME280;68328;35.990;-86.756;2023-03-14T11:12:49;99891.55;;;5.41;32.69
55022;BME280;68328;35.990;-86.756;2023-03-14T11:15:15;99890.33;;;5.18;32.48
55022;BME280;68328;35.990;-86.756;2023-03-14T11:17:39;99897.90;;;5.21;33.18
55022;BME280;68328;35.990;-86.756;2023-03-14T11:22:30;99898.50;;;5.49;33.15
55022;BME280;68328;35.990;-86.756;2023-03-14T11:24:57;99900.93;;;5.78;32.69
55022;BME280;68328;35.990;-86.756;2023-03-14T11:27:18;99904.78;;;5.81;32.61
55022;BME280;68328;35.990;-86.756;2023-03-14T11:29:42;99909.50;;;5.74;33.79
55022;BME280;68328;35.990;-86.756;2023-03-14T11:32:13;99914.73;;;5.68;32.71
55022;BME280;68328;35.990;-86.756;2023-03-14T11:34:38;99912.85;;;5.89;32.69
55022;BME280;68328;35.990;-86.756;2023-03-14T11:37:00;99916.49;;;5.34;34.80
55022;BME280;68328;35.990;-86.756;2023-03-14T11:39:23;99917.09;;;5.61;33.75
55022;BME280;68328;35.990;-86.756;2023-03-14T11:41:51;99915.68;;;5.80;32.89
55022;BME280;68328;35.990;-86.756;2023-03-14T11:44:18;99920.57;;;5.59;34.31
55022;BME280;68328;35.990;-86.756;2023-03-14T11:46:41;99925.79;;;5.78;33.70
55022;BME280;68328;35.990;-86.756;2023-03-14T11:49:06;99928.10;;;5.74;33.54
55022;BME280;68328;35.990;-86.756;2023-03-14T11:51:33;99929.70;;;5.74;33.08
55022;BME280;68328;35.990;-86.756;2023-03-14T11:53:59;99932.37;;;5.67;32.96
55022;BME280;68328;35.990;-86.756;2023-03-14T11:56:27;99929.83;;;5.46;33.40
55022;BME280;68328;35.990;-86.756;2023-03-14T11:58:54;99933.73;;;5.49;33.01
55022;BME280;68328;35.990;-86.756;2023-03-14T12:01:14;99939.28;;;5.40;33.00
55022;BME280;68328;35.990;-86.756;2023-03-14T12:03:42;99948.65;;;5.41;32.93
55022;BME280;68328;35.990;-86.756;2023-03-14T12:06:09;99948.78;;;5.01;33.26
55022;BME280;68328;35.990;-86.756;2023-03-14T12:08:45;99949.62;;;5.96;33.58
55022;BME280;68328;35.990;-86.756;2023-03-14T12:10:55;99951.56;;;5.62;32.76
55022;BME280;68328;35.990;-86.756;2023-03-14T12:13:19;99955.28;;;5.87;34.62
55022;BME280;68328;35.990;-86.756;2023-03-14T12:15:50;99956.65;;;5.89;33.70
55022;BME280;68328;35.990;-86.756;2023-03-14T12:18:17;99956.46;;;5.78;33.03
55022;BME280;68328;35.990;-86.756;2023-03-14T12:20:37;99961.13;;;5.82;32.90
55022;BME280;68328;35.990;-86.756;2023-03-14T12:23:04;99962.65;;;6.05;32.99
55022;BME280;68328;35.990;-86.756;2023-03-14T12:25:27;99963.07;;;5.95;33.44
55022;BME280;68328;35.990;-86.756;2023-03-14T12:28:03;99963.08;;;5.66;34.73
55022;BME280;68328;35.990;-86.756;2023-03-14T12:32:42;99967.93;;;5.80;34.14
55022;BME280;68328;35.990;-86.756;2023-03-14T12:37:37;99971.46;;;5.58;34.05
55022;BME280;68328;35.990;-86.756;2023-03-14T12:40:04;99975.25;;;5.27;34.38
55022;BME280;68328;35.990;-86.756;2023-03-14T12:42:37;99979.71;;;5.32;34.38
55022;BME280;68328;35.990;-86.756;2023-03-14T12:44:50;99985.87;;;5.42;34.77
55022;BME280;68328;35.990;-86.756;2023-03-14T12:49:41;99986.46;;;5.67;34.03
55022;BME280;68328;35.990;-86.756;2023-03-14T12:52:15;99989.17;;;5.46;35.11
55022;BME280;68328;35.990;-86.756;2023-03-14T12:54:37;99989.07;;;5.85;34.45